Terminal Aerodrome Forecast
Issued by NWS Detroit/Pontiac, MI

Home | Current Version | Previous Version | Text Only | Print | Product List | Glossary On
Versions: 1 2 3 4 5 6 7 8 9 10 11 12 13 14 15 16 17
000
FTUS43 KDTX 290520
TAFFNT
TAF
KFNT 290520Z 2906/3006 19006KT P6SM -SHRA BKN100 BKN200
     FM290900 19006KT P6SM SCT080 BKN200
     FM291500 19011KT P6SM BKN045 BKN250
     FM291800 21013G20KT P6SM BKN050 PROB30 2920/2924 4SM TSRA
      SCT035CB BKN050
     FM300000 28005KT P6SM SKC=

USA.gov is the U.S. government's official web portal to all federal, state and local government web resources and services.